createdAt,value
2023-10-14T00:00:27.539Z,3.80
2023-10-14T00:03:28.863Z,3.75
2023-10-14T00:06:19.592Z,3.25
2023-10-14T00:09:13.260Z,3.25
2023-10-14T00:12:11.176Z,3.42
2023-10-14T00:15:06.363Z,3.25
2023-10-14T00:17:59.067Z,3.50
2023-10-14T00:20:52.603Z,3.63
2023-10-14T00:23:42.919Z,3.28
2023-10-14T00:26:34.033Z,3.22
2023-10-14T00:29:25.157Z,3.08
2023-10-14T00:32:15.452Z,2.78
2023-10-14T00:35:07.037Z,3.08
2023-10-14T00:38:09.655Z,3.28
2023-10-14T00:41:00.873Z,2.67
2023-10-14T00:43:52.660Z,2.58
2023-10-14T00:46:49.897Z,3.05
2023-10-14T00:49:44.119Z,2.42
2023-10-14T00:52:34.851Z,2.42
2023-10-14T00:55:36.497Z,2.50
2023-10-14T00:58:29.569Z,2.45
2023-10-14T01:01:20.516Z,2.30
2023-10-14T01:04:19.987Z,2.33
2023-10-14T01:07:14.652Z,2.45
2023-10-14T01:10:07.084Z,2.80
2023-10-14T01:13:07.925Z,2.25
2023-10-14T01:16:04.260Z,2.65
2023-10-14T01:18:56.905Z,2.42
2023-10-14T01:21:52.145Z,2.30
2023-10-14T01:24:45.053Z,2.10
2023-10-14T01:27:38.085Z,2.25
2023-10-14T01:30:34.608Z,2.53
2023-10-14T01:33:26.739Z,2.55
2023-10-14T01:36:17.255Z,3.05
2023-10-14T01:39:12.473Z,2.50
2023-10-14T01:42:09.635Z,2.65
2023-10-14T01:45:00.430Z,3.03
2023-10-14T01:48:02.927Z,3.33
2023-10-14T01:50:56.438Z,3.03
2023-10-14T01:53:46.819Z,2.88
2023-10-14T01:56:38.470Z,3.08
2023-10-14T01:59:31.751Z,2.72
2023-10-14T02:02:23.888Z,2.78
2023-10-14T02:05:16.134Z,2.53
2023-10-14T02:08:06.659Z,2.85
2023-10-14T02:10:56.888Z,2.65
2023-10-14T02:13:47.163Z,3.08
2023-10-14T02:16:46.045Z,3.10
2023-10-14T02:19:40.514Z,2.83
2023-10-14T02:22:30.771Z,2.58
2023-10-14T02:25:22.000Z,3.00
2023-10-14T02:28:16.007Z,3.20
2023-10-14T02:31:17.226Z,3.38
2023-10-14T02:34:10.377Z,3.13
2023-10-14T02:37:03.103Z,2.90
2023-10-14T02:39:53.365Z,2.92
2023-10-14T02:42:43.699Z,3.40
2023-10-14T02:45:39.385Z,2.92
2023-10-14T02:48:49.676Z,3.10
2023-10-14T02:51:44.002Z,3.67
2023-10-14T02:54:36.649Z,4.05
2023-10-14T02:57:27.884Z,3.78
2023-10-14T03:00:25.350Z,3.30
2023-10-14T03:03:16.920Z,3.80
2023-10-14T03:06:10.192Z,2.92
2023-10-14T03:09:04.256Z,3.20
2023-10-14T03:11:55.020Z,2.97
2023-10-14T03:14:45.395Z,2.90
2023-10-14T03:17:45.047Z,3.65
2023-10-14T03:20:41.433Z,3.55
2023-10-14T03:23:34.150Z,2.72
2023-10-14T03:26:29.523Z,3.08
2023-10-14T03:29:24.487Z,3.13
2023-10-14T03:32:16.019Z,3.22
2023-10-14T03:35:13.575Z,3.20
2023-10-14T03:38:12.873Z,2.83
2023-10-14T03:41:19.247Z,3.03
2023-10-14T03:44:16.148Z,2.92
2023-10-14T03:47:16.232Z,2.88
2023-10-14T03:50:08.138Z,3.38
2023-10-14T03:52:59.050Z,2.78
2023-10-14T03:55:49.272Z,3.30
2023-10-14T03:58:42.764Z,1.77
2023-10-14T04:01:45.340Z,1.60
2023-10-14T04:04:36.099Z,1.95
2023-10-14T04:07:29.835Z,2.15
2023-10-14T04:10:24.651Z,2.17
2023-10-14T04:13:23.120Z,1.70
2023-10-14T04:16:14.182Z,1.10
2023-10-14T04:19:20.874Z,1.35
2023-10-14T04:22:29.346Z,0.80
2023-10-14T04:25:20.880Z,0.35
2023-10-14T04:28:32.128Z,0.70
2023-10-14T04:31:28.520Z,0.73
2023-10-14T04:34:23.742Z,0.65
2023-10-14T04:37:20.612Z,0.75
2023-10-14T04:43:12.948Z,0.85
2023-10-14T04:46:17.095Z,0.60
2023-10-14T04:49:10.617Z,0.80
2023-10-14T04:52:06.457Z,0.70
2023-10-14T04:55:01.635Z,0.52
2023-10-14T04:58:07.670Z,0.38
2023-10-14T05:01:02.479Z,0.43
2023-10-14T05:03:57.605Z,0.50
2023-10-14T05:06:54.413Z,0.40
2023-10-14T05:12:53.579Z,0.68
2023-10-14T05:15:47.146Z,0.82
2023-10-14T05:18:37.622Z,0.70
2023-10-14T05:21:44.778Z,0.60
2023-10-14T05:27:37.440Z,0.70
2023-10-14T05:30:34.693Z,0.50
2023-10-14T05:33:25.134Z,0.70
2023-10-14T05:36:15.362Z,0.50
2023-10-14T05:39:07.584Z,0.90
2023-10-14T05:42:00.098Z,0.43
2023-10-14T05:44:59.401Z,0.57
2023-10-14T05:47:50.174Z,0.70
2023-10-14T05:50:41.785Z,0.50
2023-10-14T05:53:32.584Z,0.43
2023-10-14T05:56:22.897Z,0.60
2023-10-14T05:59:13.178Z,0.40
2023-10-14T06:02:08.305Z,0.75
2023-10-14T06:04:59.644Z,0.93
2023-10-14T06:07:50.438Z,1.02
2023-10-14T06:10:43.349Z,0.52
2023-10-14T06:13:33.681Z,0.60
2023-10-14T06:16:27.108Z,0.70
2023-10-14T06:19:19.974Z,0.80
2023-10-14T06:22:10.914Z,1.00
2023-10-14T06:25:02.370Z,0.75
2023-10-14T06:27:55.208Z,0.70
2023-10-14T06:30:46.198Z,0.77
2023-10-14T06:33:36.736Z,0.88
2023-10-14T06:36:29.536Z,1.00
2023-10-14T06:39:27.884Z,0.68
2023-10-14T06:42:20.901Z,0.82
2023-10-14T06:45:12.420Z,1.10
2023-10-14T06:48:04.838Z,1.00
2023-10-14T06:50:56.331Z,1.40
2023-10-14T06:53:49.414Z,1.10
2023-10-14T06:56:41.553Z,1.00
2023-10-14T06:59:31.777Z,1.08
2023-10-14T07:02:22.870Z,1.08
2023-10-14T07:05:13.457Z,0.88
2023-10-14T07:08:04.656Z,1.25
2023-10-14T07:10:59.079Z,1.40
2023-10-14T07:13:50.481Z,1.40
2023-10-14T07:16:42.243Z,1.40
2023-10-14T07:19:32.538Z,1.15
2023-10-14T07:22:24.727Z,1.25
2023-10-14T07:25:16.124Z,1.40
2023-10-14T07:28:14.876Z,1.20
2023-10-14T07:31:05.549Z,1.20
2023-10-14T07:34:03.784Z,1.02
2023-10-14T07:36:55.134Z,1.13
2023-10-14T07:39:51.505Z,1.23
2023-10-14T07:42:42.381Z,1.10
2023-10-14T07:45:37.713Z,1.27
2023-10-14T07:48:27.933Z,1.23
2023-10-14T07:51:29.272Z,1.70
2023-10-14T07:54:20.005Z,1.38
2023-10-14T07:57:13.345Z,1.42
2023-10-14T08:00:13.222Z,1.05
2023-10-14T08:03:08.213Z,1.35
2023-10-14T08:06:01.272Z,1.00
2023-10-14T08:08:52.331Z,1.55
2023-10-14T08:11:42.651Z,1.80
2023-10-14T08:14:33.693Z,0.88
2023-10-14T08:17:25.289Z,1.55
2023-10-14T08:20:20.594Z,1.13
2023-10-14T08:23:13.145Z,1.50
2023-10-14T08:26:04.735Z,1.33
2023-10-14T08:29:01.573Z,1.20
2023-10-14T08:34:46.594Z,1.38
2023-10-14T08:37:39.348Z,1.38
2023-10-14T08:40:31.111Z,1.40
2023-10-14T08:43:27.770Z,2.15
2023-10-14T08:46:18.891Z,1.13
2023-10-14T08:49:13.963Z,1.20
2023-10-14T08:52:10.713Z,1.35
2023-10-14T08:57:54.574Z,0.88
2023-10-14T09:00:46.671Z,1.63
2023-10-14T09:03:37.728Z,1.60
2023-10-14T09:06:28.049Z,1.55
2023-10-14T09:09:24.666Z,1.25
2023-10-14T09:12:17.919Z,0.93
2023-10-14T09:15:08.906Z,1.50
2023-10-14T09:17:59.749Z,1.20
2023-10-14T09:20:55.848Z,1.15
2023-10-14T09:23:49.304Z,1.23
2023-10-14T09:26:45.356Z,0.98
2023-10-14T09:29:40.014Z,1.17
2023-10-14T09:32:30.876Z,1.17
2023-10-14T09:35:21.096Z,1.52
2023-10-14T09:38:12.464Z,2.15
2023-10-14T09:41:03.915Z,1.15
2023-10-14T09:43:54.935Z,1.05
2023-10-14T09:46:50.088Z,1.27
2023-10-14T09:49:41.925Z,1.40
2023-10-14T09:52:32.430Z,1.52
2023-10-14T09:55:24.459Z,1.40
2023-10-14T09:58:19.604Z,1.25
2023-10-14T10:01:13.291Z,1.60
2023-10-14T10:04:12.245Z,1.27
2023-10-14T10:07:17.476Z,1.15
2023-10-14T10:10:16.657Z,1.15
2023-10-14T10:13:08.014Z,1.08
2023-10-14T10:16:06.332Z,1.52
2023-10-14T10:19:00.792Z,1.00
2023-10-14T10:22:21.945Z,1.25
2023-10-14T10:25:16.255Z,1.42
2023-10-14T10:28:36.502Z,1.10
2023-10-14T10:31:26.821Z,1.25
2023-10-14T10:34:19.968Z,1.23
2023-10-14T10:37:10.246Z,1.23
2023-10-14T10:40:06.609Z,1.05
2023-10-14T10:42:59.294Z,1.50
2023-10-14T10:45:53.654Z,1.40
2023-10-14T10:48:44.435Z,1.17
2023-10-14T10:51:36.904Z,0.93
2023-10-14T10:54:27.650Z,1.05
2023-10-14T10:57:21.924Z,1.45
2023-10-14T11:00:19.217Z,1.08
2023-10-14T11:03:15.324Z,1.23
2023-10-14T11:06:06.292Z,1.20
2023-10-14T11:08:58.521Z,1.50
2023-10-14T11:11:50.228Z,2.05
2023-10-14T11:14:43.571Z,1.58
2023-10-14T11:17:33.863Z,1.70
2023-10-14T11:20:25.552Z,1.80
2023-10-14T11:23:17.595Z,2.80
2023-10-14T11:26:13.389Z,1.90
2023-10-14T11:29:04.649Z,1.17
2023-10-14T11:32:00.094Z,1.40
2023-10-14T11:34:54.243Z,1.60
2023-10-14T11:37:57.334Z,1.00
2023-10-14T11:40:51.202Z,1.20
2023-10-14T11:43:46.117Z,1.23
2023-10-14T11:46:40.089Z,1.23
2023-10-14T11:49:34.102Z,1.40
2023-10-14T11:52:25.728Z,1.08
2023-10-14T11:55:16.753Z,1.60
2023-10-14T11:58:07.695Z,1.40
2023-10-14T12:00:58.185Z,1.15
2023-10-14T12:03:48.870Z,1.42
2023-10-14T12:06:41.881Z,1.45
2023-10-14T12:09:32.190Z,1.63
2023-10-14T12:12:22.518Z,1.23
2023-10-14T12:15:14.338Z,1.52
2023-10-14T12:18:04.973Z,1.13
2023-10-14T12:20:55.627Z,1.60
2023-10-14T12:23:48.457Z,1.20
2023-10-14T12:26:45.800Z,1.17
2023-10-14T12:29:36.816Z,1.42
2023-10-14T12:32:27.164Z,1.25
2023-10-14T12:35:19.409Z,1.00
2023-10-14T12:38:13.201Z,1.00
2023-10-14T12:41:08.640Z,1.05
2023-10-14T12:44:02.052Z,1.17
2023-10-14T12:46:52.833Z,1.23
2023-10-14T12:49:43.881Z,1.05
2023-10-14T12:52:34.727Z,1.42
2023-10-14T12:55:26.362Z,1.20
2023-10-14T12:58:19.625Z,1.00
2023-10-14T13:01:14.939Z,0.80
2023-10-14T13:04:14.493Z,1.15
2023-10-14T13:07:05.347Z,1.10
2023-10-14T13:09:55.570Z,1.15
2023-10-14T13:12:45.813Z,1.55
2023-10-14T13:15:39.298Z,1.25
2023-10-14T13:18:29.524Z,0.95
2023-10-14T13:21:22.566Z,1.00
2023-10-14T13:24:13.380Z,1.10
2023-10-14T13:27:03.581Z,1.33
2023-10-14T13:29:54.006Z,1.40
2023-10-14T13:32:49.275Z,1.00
2023-10-14T13:35:39.509Z,1.70
2023-10-14T13:38:29.707Z,1.10
2023-10-14T13:41:24.560Z,1.30
2023-10-14T13:44:15.357Z,0.93
2023-10-14T13:47:07.001Z,1.05
2023-10-14T13:50:00.259Z,1.20
2023-10-14T13:52:52.583Z,0.80
2023-10-14T13:55:42.864Z,1.83
2023-10-14T13:58:35.919Z,1.02
2023-10-14T14:01:26.296Z,1.02
2023-10-14T14:04:19.078Z,1.73
2023-10-14T14:07:13.800Z,1.50
2023-10-14T14:10:06.599Z,2.97
2023-10-14T14:12:57.102Z,3.70
2023-10-14T14:15:48.350Z,11.73
2023-10-14T14:18:38.776Z,1.65
2023-10-14T14:21:29.014Z,1.10
2023-10-14T14:24:23.806Z,1.23
2023-10-14T14:27:14.606Z,1.10
2023-10-14T14:30:08.662Z,1.17
2023-10-14T14:32:59.265Z,0.77
2023-10-14T14:35:51.540Z,1.38
2023-10-14T14:38:42.871Z,1.17
2023-10-14T14:41:38.103Z,1.08
2023-10-14T14:44:28.573Z,1.33
2023-10-14T14:47:18.895Z,2.80
2023-10-14T14:50:13.340Z,4.03
2023-10-14T14:53:07.899Z,1.02
2023-10-14T14:55:58.438Z,1.67
2023-10-14T14:58:51.361Z,1.13
2023-10-14T15:01:42.794Z,1.00
2023-10-14T15:04:33.607Z,1.10
2023-10-14T15:07:24.694Z,1.20
2023-10-14T15:10:15.280Z,1.30
2023-10-14T15:13:08.051Z,1.15
2023-10-14T15:16:01.176Z,1.15
2023-10-14T15:18:51.538Z,1.23
2023-10-14T15:21:41.781Z,1.42
2023-10-14T15:24:32.429Z,1.10
2023-10-14T15:27:22.755Z,1.65
2023-10-14T15:30:16.744Z,1.55
2023-10-14T15:33:11.544Z,1.48
2023-10-14T15:36:13.086Z,1.17
2023-10-14T15:39:06.939Z,1.48
2023-10-14T15:41:57.195Z,1.33
2023-10-14T15:44:47.476Z,0.70
2023-10-14T15:47:37.763Z,0.70
2023-10-14T15:50:32.932Z,0.60
2023-10-14T15:53:23.176Z,1.00
2023-10-14T15:56:21.312Z,0.68
2023-10-14T15:59:11.602Z,1.15
2023-10-14T16:02:02.779Z,1.10
2023-10-14T16:04:53.614Z,1.00
2023-10-14T16:07:47.074Z,0.50
2023-10-14T16:10:41.381Z,0.90
2023-10-14T16:13:31.707Z,0.55
2023-10-14T16:16:23.139Z,0.82
2023-10-14T16:19:18.511Z,0.80
2023-10-14T16:22:08.795Z,1.10
2023-10-14T16:25:03.365Z,0.90
2023-10-14T16:27:54.644Z,1.10
2023-10-14T16:30:45.549Z,1.08
2023-10-14T16:33:35.746Z,0.63
2023-10-14T16:36:28.351Z,0.77
2023-10-14T16:39:18.604Z,1.23
2023-10-14T16:42:12.730Z,1.80
2023-10-14T16:45:03.079Z,1.95
2023-10-14T16:47:54.761Z,1.40
2023-10-14T16:50:45.768Z,1.20
2023-10-14T16:53:36.015Z,0.85
2023-10-14T16:56:29.200Z,0.90
2023-10-14T16:59:23.307Z,0.82
2023-10-14T17:02:14.773Z,0.60
2023-10-14T17:05:08.535Z,0.60
2023-10-14T17:08:02.772Z,1.10
2023-10-14T17:10:54.857Z,0.90
2023-10-14T17:13:45.414Z,0.70
2023-10-14T17:16:39.618Z,0.95
2023-10-14T17:19:30.170Z,0.70
2023-10-14T17:22:20.500Z,0.93
2023-10-14T17:25:11.948Z,0.90
2023-10-14T17:28:05.132Z,1.30
2023-10-14T17:30:55.552Z,0.85
2023-10-14T17:33:48.883Z,1.50
2023-10-14T17:36:40.782Z,1.02
2023-10-14T17:39:32.103Z,0.73
2023-10-14T17:42:22.327Z,0.75
2023-10-14T17:45:14.729Z,0.90
2023-10-14T17:48:07.623Z,0.75
2023-10-14T17:51:02.586Z,1.15
2023-10-14T17:53:53.017Z,0.98
2023-10-14T17:56:43.566Z,1.00
2023-10-14T17:59:33.778Z,0.90
2023-10-14T18:02:25.136Z,1.10
2023-10-14T18:05:15.763Z,1.17
2023-10-14T18:08:10.604Z,0.80
2023-10-14T18:11:01.081Z,1.05
2023-10-14T18:13:51.651Z,1.30
2023-10-14T18:16:52.681Z,3.17
2023-10-14T18:19:51.944Z,8.57
2023-10-14T18:22:42.269Z,7.45
2023-10-14T18:25:40.134Z,2.88
2023-10-14T18:28:33.479Z,1.20
2023-10-14T18:31:23.874Z,1.02
2023-10-14T18:34:14.759Z,0.90
2023-10-14T18:37:05.447Z,0.90
2023-10-14T18:39:57.575Z,1.50
2023-10-14T18:42:51.581Z,1.55
2023-10-14T18:45:42.666Z,1.08
2023-10-14T18:48:33.511Z,0.80
2023-10-14T18:51:24.863Z,0.95
2023-10-14T18:54:15.707Z,0.82
2023-10-14T18:57:06.189Z,0.55
2023-10-14T18:59:59.005Z,0.70
2023-10-14T19:02:54.590Z,0.80
2023-10-14T19:05:45.317Z,0.73
2023-10-14T19:08:36.880Z,0.90
2023-10-14T19:11:27.663Z,1.08
2023-10-14T19:14:19.074Z,1.25
2023-10-14T19:17:13.373Z,0.52
2023-10-14T19:20:10.066Z,0.70
2023-10-14T19:23:14.072Z,0.85
2023-10-14T19:26:06.200Z,1.10
2023-10-14T19:28:56.557Z,1.10
2023-10-14T19:31:46.852Z,0.90
2023-10-14T19:34:40.041Z,1.20
2023-10-14T19:37:31.573Z,0.95
2023-10-14T19:40:24.123Z,0.60
2023-10-14T19:43:15.107Z,1.08
2023-10-14T19:46:06.864Z,1.00
2023-10-14T19:49:01.688Z,0.90
2023-10-14T19:51:54.760Z,0.90
2023-10-14T19:54:45.133Z,0.70
2023-10-14T19:57:36.428Z,0.85
2023-10-14T20:00:29.467Z,0.75
2023-10-14T20:03:21.335Z,1.10
2023-10-14T20:06:12.652Z,0.85
2023-10-14T20:09:11.040Z,1.25
2023-10-14T20:12:01.279Z,1.00
2023-10-14T20:14:51.573Z,0.82
2023-10-14T20:17:43.502Z,1.00
2023-10-14T20:20:33.886Z,1.02
2023-10-14T20:23:24.325Z,1.20
2023-10-14T20:26:17.144Z,1.10
2023-10-14T20:29:07.626Z,0.93
2023-10-14T20:31:57.983Z,1.48
2023-10-14T20:34:48.311Z,1.10
2023-10-14T20:37:40.726Z,1.35
2023-10-14T20:40:33.320Z,1.25
2023-10-14T20:43:26.274Z,0.98
2023-10-14T20:46:19.378Z,0.82
2023-10-14T20:49:11.898Z,0.85
2023-10-14T20:52:02.186Z,1.20
2023-10-14T20:54:53.040Z,1.00
2023-10-14T20:57:43.558Z,0.90
2023-10-14T21:00:40.739Z,0.90
2023-10-14T21:03:32.334Z,0.82
2023-10-14T21:06:25.052Z,0.82
2023-10-14T21:09:17.458Z,0.90
2023-10-14T21:12:08.358Z,0.90
2023-10-14T21:14:59.095Z,1.10
2023-10-14T21:17:51.962Z,0.98
2023-10-14T21:20:42.986Z,0.82
2023-10-14T21:23:33.724Z,1.05
2023-10-14T21:26:23.940Z,0.98
2023-10-14T21:29:16.227Z,1.27
2023-10-14T21:32:06.894Z,1.05
2023-10-14T21:35:01.010Z,1.25
2023-10-14T21:37:51.410Z,1.30
2023-10-14T21:40:41.778Z,1.35
2023-10-14T21:43:32.053Z,1.13
2023-10-14T21:46:23.733Z,1.05
2023-10-14T21:49:14.087Z,1.08
2023-10-14T21:52:07.343Z,1.30
2023-10-14T21:54:57.525Z,1.15
2023-10-14T21:57:47.765Z,1.40
2023-10-14T22:00:42.592Z,1.73
2023-10-14T22:03:33.940Z,1.58
2023-10-14T22:06:25.057Z,1.50
2023-10-14T22:09:19.235Z,1.38
2023-10-14T22:12:10.847Z,1.42
2023-10-14T22:15:01.150Z,1.30
2023-10-14T22:17:53.730Z,1.17
2023-10-14T22:20:44.030Z,1.50
2023-10-14T22:23:37.254Z,1.90
2023-10-14T22:26:33.916Z,1.15
2023-10-14T22:29:24.160Z,1.48
2023-10-14T22:32:14.558Z,1.63
2023-10-14T22:35:06.977Z,1.85
2023-10-14T22:37:57.335Z,1.25
2023-10-14T22:40:47.637Z,1.40
2023-10-14T22:43:42.167Z,2.13
2023-10-14T22:46:33.331Z,1.30
2023-10-14T22:49:24.341Z,1.77
2023-10-14T22:52:14.639Z,1.50
2023-10-14T22:55:04.986Z,1.60
2023-10-14T22:57:56.643Z,1.20
2023-10-14T23:00:50.287Z,1.35
2023-10-14T23:03:42.948Z,1.40
2023-10-14T23:06:33.269Z,1.70
2023-10-14T23:09:23.501Z,1.25
2023-10-14T23:12:13.728Z,1.33
2023-10-14T23:15:04.575Z,2.08
2023-10-14T23:17:58.452Z,1.17
2023-10-14T23:20:49.621Z,1.50
2023-10-14T23:23:41.306Z,2.22
2023-10-14T23:26:31.832Z,1.60
2023-10-14T23:29:22.128Z,1.40
2023-10-14T23:32:12.620Z,1.70
2023-10-14T23:35:10.547Z,1.45
2023-10-14T23:38:03.225Z,1.58
2023-10-14T23:40:54.095Z,1.60
2023-10-14T23:43:45.893Z,1.40
2023-10-14T23:46:36.274Z,1.38
2023-10-14T23:49:26.562Z,1.33
2023-10-14T23:52:19.517Z,1.38
2023-10-14T23:55:12.401Z,1.23
2023-10-14T23:58:02.972Z,1.67
